Terminal Aerodrome Forecast
Issued by NWS

Home | Current Version | Previous Version | Text Only | Print | Product List | Glossary On
Versions: 1 2 3 4 5 6 7 8 9 10 11 12 13 14
000
FTUS45 KVEF 291735
TAFBIH
TAF
KBIH 291735Z 2918/3018 VRB04KT P6SM FEW250
     FM292000 17011G19KT P6SM FEW140 SCT250
     FM300300 15008KT P6SM SCT250
     FM300600 33006KT P6SM SCT250=

USA.gov is the U.S. government's official web portal to all federal, state and local government web resources and services.